createdAt,value
2022-10-05T00:00:25.914Z,71.60
2022-10-05T00:02:54.410Z,71.60
2022-10-05T00:05:29.538Z,71.70
2022-10-05T00:08:02.869Z,71.70
2022-10-05T00:10:29.870Z,71.70
2022-10-05T00:12:56.668Z,71.60
2022-10-05T00:15:23.653Z,71.70
2022-10-05T00:17:50.507Z,71.70
2022-10-05T00:20:22.639Z,71.70
2022-10-05T00:22:57.370Z,71.70
2022-10-05T00:25:24.727Z,71.70
2022-10-05T00:27:57.362Z,71.70
2022-10-05T00:30:26.422Z,71.70
2022-10-05T00:32:58.696Z,71.60
2022-10-05T00:35:28.259Z,71.60
2022-10-05T00:37:56.240Z,71.70
2022-10-05T00:41:01.769Z,71.50
2022-10-05T00:43:58.693Z,71.60
2022-10-05T00:46:46.035Z,71.60
2022-10-05T00:50:08.535Z,71.60
2022-10-05T00:52:35.325Z,71.60
2022-10-05T00:55:26.069Z,71.60
2022-10-05T00:58:11.436Z,71.70
2022-10-05T01:01:23.150Z,71.70
2022-10-05T01:04:07.980Z,71.70
2022-10-05T01:06:53.220Z,71.70
2022-10-05T01:09:41.655Z,71.80
2022-10-05T01:12:14.208Z,71.80
2022-10-05T01:15:16.260Z,71.80
2022-10-05T01:17:58.262Z,71.70
2022-10-05T01:20:37.448Z,71.80
2022-10-05T01:23:41.691Z,71.70
2022-10-05T01:26:17.456Z,71.80
2022-10-05T01:28:51.846Z,71.90
2022-10-05T01:31:25.461Z,71.90
2022-10-05T01:34:17.285Z,72.00
2022-10-05T01:36:49.806Z,72.00
2022-10-05T01:39:46.297Z,72.00
2022-10-05T01:42:37.460Z,72.00
2022-10-05T01:45:27.648Z,72.00
2022-10-05T01:48:09.892Z,72.00
2022-10-05T01:51:04.425Z,72.00
2022-10-05T01:54:01.242Z,72.00
2022-10-05T01:56:33.818Z,72.00
2022-10-05T01:59:18.931Z,72.00
2022-10-05T02:01:58.644Z,72.00
2022-10-05T02:07:57.609Z,72.00
2022-10-05T02:11:07.515Z,72.00
2022-10-05T02:13:40.135Z,72.00
2022-10-05T02:16:24.743Z,72.00
2022-10-05T02:19:09.301Z,72.10
2022-10-05T02:21:36.948Z,72.10
2022-10-05T02:24:11.791Z,72.10
2022-10-05T02:26:40.478Z,72.10
2022-10-05T02:29:11.405Z,72.20
2022-10-05T02:31:54.689Z,72.10
2022-10-05T02:34:30.961Z,72.10
2022-10-05T02:37:18.848Z,72.10
2022-10-05T02:39:52.752Z,72.10
2022-10-05T02:42:26.930Z,72.10
2022-10-05T02:45:02.578Z,72.10
2022-10-05T02:47:52.284Z,72.10
2022-10-05T02:50:19.063Z,72.10
2022-10-05T02:53:12.717Z,72.10
2022-10-05T02:55:57.487Z,72.10
2022-10-05T02:58:31.269Z,72.10
2022-10-05T03:01:09.445Z,72.10
2022-10-05T03:03:43.665Z,73.20
2022-10-05T03:06:25.673Z,72.20
2022-10-05T03:09:08.829Z,72.10
2022-10-05T03:12:08.637Z,72.20
2022-10-05T03:15:11.406Z,72.10
2022-10-05T03:17:54.025Z,72.10
2022-10-05T03:20:40.479Z,72.10
2022-10-05T03:23:32.924Z,72.10
2022-10-05T03:26:12.953Z,72.20
2022-10-05T03:28:59.751Z,72.10
2022-10-05T03:31:35.362Z,72.20
2022-10-05T03:34:12.807Z,72.20
2022-10-05T03:37:01.719Z,72.10
2022-10-05T03:39:43.793Z,72.10
2022-10-05T03:42:35.614Z,72.10
2022-10-05T03:45:09.327Z,72.10
2022-10-05T03:47:41.382Z,72.10
2022-10-05T03:50:12.028Z,72.10
2022-10-05T03:52:47.716Z,72.20
2022-10-05T03:55:23.648Z,72.10
2022-10-05T03:57:55.976Z,72.20
2022-10-05T04:00:23.559Z,72.10
2022-10-05T04:03:25.928Z,72.00
2022-10-05T04:06:00.888Z,72.00
2022-10-05T04:08:50.714Z,71.90
2022-10-05T04:11:31.777Z,71.90
2022-10-05T04:14:07.364Z,71.90
2022-10-05T04:16:48.158Z,71.90
2022-10-05T04:19:52.642Z,71.90
2022-10-05T04:22:23.684Z,71.90
2022-10-05T04:25:19.746Z,71.90
2022-10-05T04:28:12.061Z,71.90
2022-10-05T04:30:42.290Z,71.70
2022-10-05T04:33:12.563Z,71.70
2022-10-05T04:36:07.845Z,71.70
2022-10-05T04:38:50.813Z,71.70
2022-10-05T04:41:20.365Z,71.70
2022-10-05T04:44:00.180Z,71.60
2022-10-05T04:46:46.927Z,71.60
2022-10-05T04:49:29.264Z,71.50
2022-10-05T04:52:04.179Z,71.50
2022-10-05T04:54:34.169Z,71.50
2022-10-05T04:57:12.490Z,71.40
2022-10-05T04:59:39.346Z,71.30
2022-10-05T05:02:43.181Z,71.30
2022-10-05T05:05:20.881Z,71.40
2022-10-05T05:08:13.760Z,71.30
2022-10-05T05:10:51.449Z,71.30
2022-10-05T05:13:27.022Z,71.30
2022-10-05T05:16:18.321Z,71.30
2022-10-05T05:18:55.248Z,71.10
2022-10-05T05:21:47.350Z,71.10
2022-10-05T05:24:26.499Z,71.10
2022-10-05T05:27:09.544Z,71.10
2022-10-05T05:29:42.393Z,71.00
2022-10-05T05:32:39.893Z,70.90
2022-10-05T05:35:35.153Z,70.90
2022-10-05T05:38:27.607Z,70.70
2022-10-05T05:41:03.793Z,70.60
2022-10-05T05:44:10.792Z,70.50
2022-10-05T05:47:02.484Z,70.50
2022-10-05T05:49:49.659Z,70.40
2022-10-05T05:52:24.283Z,70.30
2022-10-05T05:55:01.045Z,70.30
2022-10-05T05:57:41.034Z,70.30
2022-10-05T06:00:19.170Z,70.20
2022-10-05T06:03:25.978Z,70.20
2022-10-05T06:06:01.545Z,70.20
2022-10-05T06:08:46.789Z,70.20
2022-10-05T06:11:31.057Z,70.20
2022-10-05T06:14:05.155Z,70.10
2022-10-05T06:16:50.336Z,70.10
2022-10-05T06:19:22.091Z,70.10
2022-10-05T06:22:00.227Z,70.20
2022-10-05T06:24:41.405Z,70.10
2022-10-05T06:27:35.357Z,70.10
2022-10-05T06:30:16.931Z,70.20
2022-10-05T06:33:14.515Z,70.30
2022-10-05T06:35:46.392Z,70.30
2022-10-05T06:38:13.910Z,70.30
2022-10-05T06:41:11.649Z,70.20
2022-10-05T06:43:46.813Z,70.30
2022-10-05T06:46:38.180Z,70.20
2022-10-05T06:49:48.181Z,70.30
2022-10-05T06:53:02.524Z,70.40
2022-10-05T06:55:42.706Z,70.50
2022-10-05T06:58:18.533Z,70.40
2022-10-05T07:00:56.192Z,70.50
2022-10-05T07:03:57.453Z,70.50
2022-10-05T07:06:24.276Z,70.60
2022-10-05T07:08:51.185Z,70.50
2022-10-05T07:11:23.954Z,70.50
2022-10-05T07:14:04.280Z,70.70
2022-10-05T07:16:54.074Z,70.80
2022-10-05T07:19:52.499Z,70.80
2022-10-05T07:22:41.208Z,70.70
2022-10-05T07:25:23.376Z,70.90
2022-10-05T07:27:57.554Z,70.80
2022-10-05T07:30:24.779Z,70.90
2022-10-05T07:33:09.227Z,71.00
2022-10-05T07:36:16.546Z,71.00
2022-10-05T07:39:05.536Z,71.10
2022-10-05T07:41:51.331Z,71.00
2022-10-05T07:44:34.834Z,71.10
2022-10-05T07:47:09.678Z,71.00
2022-10-05T07:49:53.893Z,71.10
2022-10-05T07:52:34.660Z,71.10
2022-10-05T07:55:20.588Z,71.10
2022-10-05T07:58:09.800Z,71.10
2022-10-05T08:01:19.153Z,71.10
2022-10-05T08:04:08.186Z,71.20
2022-10-05T08:06:38.113Z,71.10
2022-10-05T08:09:27.954Z,71.10
2022-10-05T08:12:24.148Z,71.30
2022-10-05T08:14:58.921Z,71.30
2022-10-05T08:17:47.536Z,71.30
2022-10-05T08:20:19.046Z,71.30
2022-10-05T08:23:08.917Z,71.30
2022-10-05T08:25:54.967Z,71.30
2022-10-05T08:28:30.852Z,71.40
2022-10-05T08:31:18.962Z,71.30
2022-10-05T08:33:45.880Z,71.40
2022-10-05T08:36:15.530Z,71.40
2022-10-05T08:38:42.865Z,71.40
2022-10-05T08:42:00.523Z,71.50
2022-10-05T08:44:55.102Z,71.40
2022-10-05T08:47:49.167Z,71.40
2022-10-05T08:50:52.973Z,71.40
2022-10-05T08:53:34.201Z,71.50
2022-10-05T08:56:28.926Z,71.40
2022-10-05T08:59:10.514Z,71.40
2022-10-05T09:01:51.298Z,71.40
2022-10-05T09:04:33.198Z,71.30
2022-10-05T09:07:07.908Z,71.40
2022-10-05T09:09:52.222Z,71.50
2022-10-05T09:12:53.334Z,71.50
2022-10-05T09:15:47.523Z,71.50
2022-10-05T09:18:14.297Z,71.50
2022-10-05T09:20:54.282Z,71.40
2022-10-05T09:23:38.993Z,71.40
2022-10-05T09:26:41.173Z,71.40
2022-10-05T09:29:22.753Z,71.30
2022-10-05T09:31:55.735Z,71.20
2022-10-05T09:34:44.745Z,71.30
2022-10-05T09:37:29.813Z,71.10
2022-10-05T09:40:18.120Z,71.20
2022-10-05T09:42:59.356Z,71.10
2022-10-05T09:45:48.812Z,71.00
2022-10-05T09:48:53.580Z,70.90
2022-10-05T09:51:58.663Z,71.00
2022-10-05T09:54:50.245Z,71.00
2022-10-05T09:57:26.058Z,71.00
2022-10-05T10:00:15.123Z,71.00
2022-10-05T10:03:21.149Z,71.00
2022-10-05T10:06:14.430Z,71.20
2022-10-05T10:08:51.275Z,71.60
2022-10-05T10:11:34.729Z,71.10
2022-10-05T10:14:01.649Z,71.10
2022-10-05T10:16:50.724Z,71.00
2022-10-05T10:19:24.058Z,71.10
2022-10-05T10:21:59.729Z,71.10
2022-10-05T10:24:43.228Z,71.10
2022-10-05T10:27:35.069Z,72.20
2022-10-05T10:30:39.022Z,71.20
2022-10-05T10:33:31.096Z,71.20
2022-10-05T10:36:07.236Z,71.20
2022-10-05T10:39:02.234Z,71.30
2022-10-05T10:41:35.056Z,71.30
2022-10-05T10:44:52.990Z,71.20
2022-10-05T10:47:25.750Z,71.30
2022-10-05T10:50:05.952Z,71.40
2022-10-05T10:53:02.496Z,71.50
2022-10-05T10:55:41.201Z,71.60
2022-10-05T11:01:14.164Z,71.60
2022-10-05T11:04:09.782Z,71.60
2022-10-05T11:07:06.796Z,71.70
2022-10-05T11:10:02.877Z,71.80
2022-10-05T11:12:48.724Z,71.80
2022-10-05T11:15:46.416Z,71.80
2022-10-05T11:18:34.946Z,71.80
2022-10-05T11:21:17.444Z,71.80
2022-10-05T11:24:21.754Z,71.80
2022-10-05T11:27:09.714Z,71.90
2022-10-05T11:30:04.369Z,71.80
2022-10-05T11:32:46.321Z,72.00
2022-10-05T11:35:19.941Z,72.10
2022-10-05T11:38:14.540Z,72.00
2022-10-05T11:40:47.655Z,73.10
2022-10-05T11:43:33.411Z,72.10
2022-10-05T11:46:24.255Z,72.30
2022-10-05T11:49:02.561Z,72.20
2022-10-05T11:51:38.748Z,72.20
2022-10-05T11:54:29.543Z,72.10
2022-10-05T11:57:07.754Z,72.10
2022-10-05T11:59:39.573Z,72.00
2022-10-05T12:02:31.987Z,71.90
2022-10-05T12:04:58.794Z,71.80
2022-10-05T12:07:39.530Z,71.70
2022-10-05T12:10:20.182Z,71.60
2022-10-05T12:13:13.496Z,71.60
2022-10-05T12:16:17.448Z,71.40
2022-10-05T12:19:00.469Z,71.40
2022-10-05T12:21:36.039Z,71.20
2022-10-05T12:24:14.151Z,71.20
2022-10-05T12:26:46.633Z,71.20
2022-10-05T12:29:20.557Z,71.00
2022-10-05T12:31:58.771Z,71.00
2022-10-05T12:34:40.739Z,71.00
2022-10-05T12:37:10.152Z,71.10
2022-10-05T12:40:06.177Z,71.10
2022-10-05T12:43:14.302Z,71.00
2022-10-05T12:46:04.375Z,71.00
2022-10-05T12:48:34.085Z,70.90
2022-10-05T12:51:15.899Z,70.70
2022-10-05T12:53:52.231Z,70.70
2022-10-05T12:56:28.986Z,70.60
2022-10-05T12:58:58.594Z,70.60
2022-10-05T13:01:40.230Z,70.50
2022-10-05T13:04:38.848Z,70.50
2022-10-05T13:07:23.690Z,70.50
2022-10-05T13:09:59.825Z,70.40
2022-10-05T13:12:46.828Z,70.50
2022-10-05T13:15:13.598Z,70.50
2022-10-05T13:18:18.305Z,70.50
2022-10-05T13:20:50.129Z,70.50
2022-10-05T13:24:01.354Z,70.40
2022-10-05T13:26:34.184Z,70.50
2022-10-05T13:29:28.189Z,70.40
2022-10-05T13:32:00.236Z,70.50
2022-10-05T13:34:43.530Z,70.60
2022-10-05T13:37:37.413Z,70.50
2022-10-05T13:40:07.200Z,70.50
2022-10-05T13:42:48.729Z,70.40
2022-10-05T13:45:25.877Z,70.40
2022-10-05T13:47:52.786Z,70.30
2022-10-05T13:50:26.588Z,70.30
2022-10-05T13:53:15.130Z,70.30
2022-10-05T13:55:44.921Z,70.30
2022-10-05T13:58:35.755Z,70.40
2022-10-05T14:01:07.024Z,70.30
2022-10-05T14:03:37.000Z,70.20
2022-10-05T14:06:27.614Z,70.20
2022-10-05T14:08:55.005Z,70.20
2022-10-05T14:11:34.828Z,70.10
2022-10-05T14:14:16.365Z,70.00
2022-10-05T14:16:58.822Z,70.00
2022-10-05T14:19:44.498Z,69.80
2022-10-05T14:22:22.308Z,69.80
2022-10-05T14:24:55.315Z,69.70
2022-10-05T14:27:28.428Z,69.60
2022-10-05T14:30:15.587Z,69.40
2022-10-05T14:32:59.064Z,69.40
2022-10-05T14:35:46.222Z,69.20
2022-10-05T14:38:25.699Z,69.10
2022-10-05T14:41:10.913Z,69.00
2022-10-05T14:43:38.924Z,68.80
2022-10-05T14:46:28.012Z,68.70
2022-10-05T14:49:21.286Z,68.60
2022-10-05T14:51:49.637Z,68.40
2022-10-05T14:54:23.013Z,68.10
2022-10-05T14:57:47.967Z,67.80
2022-10-05T15:00:18.778Z,67.70
2022-10-05T15:03:15.739Z,67.60
2022-10-05T15:05:49.605Z,67.50
2022-10-05T15:08:26.611Z,67.50
2022-10-05T15:11:11.795Z,67.40
2022-10-05T15:13:42.473Z,67.30
2022-10-05T15:16:22.909Z,67.30
2022-10-05T15:19:22.072Z,67.30
2022-10-05T15:22:01.188Z,67.40
2022-10-05T15:24:43.829Z,67.40
2022-10-05T15:27:23.875Z,67.40
2022-10-05T15:30:09.491Z,68.40
2022-10-05T15:33:05.555Z,67.30
2022-10-05T15:35:54.426Z,67.30
2022-10-05T15:38:27.516Z,67.30
2022-10-05T15:41:09.774Z,67.30
2022-10-05T15:43:55.559Z,67.30
2022-10-05T15:46:24.563Z,67.40
2022-10-05T15:49:01.800Z,67.40
2022-10-05T15:51:35.399Z,67.50
2022-10-05T15:54:28.769Z,67.30
2022-10-05T15:57:08.104Z,67.50
2022-10-05T15:59:51.966Z,67.40
2022-10-05T16:02:33.126Z,67.50
2022-10-05T16:05:12.170Z,67.50
2022-10-05T16:08:10.802Z,67.40
2022-10-05T16:10:43.973Z,67.50
2022-10-05T16:13:29.766Z,67.40
2022-10-05T16:16:12.579Z,67.50
2022-10-05T16:19:02.767Z,67.50
2022-10-05T16:21:51.599Z,67.60
2022-10-05T16:24:41.844Z,67.40
2022-10-05T16:27:39.421Z,67.20
2022-10-05T16:30:17.670Z,66.90
2022-10-05T16:33:09.600Z,66.70
2022-10-05T16:35:45.105Z,66.60
2022-10-05T16:38:22.445Z,66.70
2022-10-05T16:41:03.743Z,66.70
2022-10-05T16:44:06.889Z,66.60
2022-10-05T16:46:57.721Z,66.60
2022-10-05T16:49:56.498Z,66.80
2022-10-05T16:52:26.493Z,66.80
2022-10-05T16:55:02.757Z,66.90
2022-10-05T16:58:00.866Z,67.00
2022-10-05T17:00:33.728Z,67.10
2022-10-05T17:03:08.194Z,67.20
2022-10-05T17:05:56.285Z,67.20
2022-10-05T17:08:49.269Z,67.30
2022-10-05T17:11:44.955Z,67.30
2022-10-05T17:14:32.831Z,67.40
2022-10-05T17:17:02.527Z,67.40
2022-10-05T17:19:42.559Z,67.30
2022-10-05T17:22:39.528Z,67.40
2022-10-05T17:25:43.130Z,67.40
2022-10-05T17:28:23.717Z,67.40
2022-10-05T17:31:07.869Z,67.40
2022-10-05T17:34:00.494Z,67.60
2022-10-05T17:36:51.327Z,67.50
2022-10-05T17:39:21.045Z,67.60
2022-10-05T17:41:48.235Z,67.60
2022-10-05T17:44:21.268Z,67.70
2022-10-05T17:46:56.096Z,67.70
2022-10-05T17:49:37.993Z,67.70
2022-10-05T17:52:46.618Z,67.70
2022-10-05T17:55:39.641Z,67.70
2022-10-05T17:58:27.291Z,67.70
2022-10-05T18:00:57.199Z,67.90
2022-10-05T18:03:43.346Z,68.50
2022-10-05T18:06:22.321Z,68.00
2022-10-05T18:08:49.708Z,68.00
2022-10-05T18:11:28.958Z,68.10
2022-10-05T18:14:14.833Z,68.10
2022-10-05T18:16:57.033Z,68.10
2022-10-05T18:19:24.472Z,68.20
2022-10-05T18:22:16.016Z,68.20
2022-10-05T18:25:03.749Z,68.30
2022-10-05T18:27:39.622Z,68.30
2022-10-05T18:30:19.180Z,68.30
2022-10-05T18:33:32.079Z,68.30
2022-10-05T18:36:17.836Z,68.40
2022-10-05T18:38:58.928Z,68.40
2022-10-05T18:41:33.293Z,68.50
2022-10-05T18:44:23.205Z,68.50
2022-10-05T18:47:23.992Z,68.50
2022-10-05T18:50:24.729Z,68.60
2022-10-05T18:53:00.714Z,68.70
2022-10-05T18:55:36.076Z,68.70
2022-10-05T18:58:02.918Z,68.80
2022-10-05T19:01:01.836Z,68.90
2022-10-05T19:03:43.127Z,69.00
2022-10-05T19:06:24.981Z,69.00
2022-10-05T19:09:27.749Z,69.10
2022-10-05T19:12:22.254Z,69.10
2022-10-05T19:14:58.065Z,69.30
2022-10-05T19:17:44.622Z,69.40
2022-10-05T19:20:27.484Z,69.60
2022-10-05T19:22:57.199Z,70.00
2022-10-05T19:25:46.196Z,70.00
2022-10-05T19:28:34.202Z,70.30
2022-10-05T19:31:13.315Z,70.40
2022-10-05T19:33:55.322Z,70.60
2022-10-05T19:36:31.946Z,70.70
2022-10-05T19:39:22.019Z,70.60
2022-10-05T19:42:24.926Z,70.80
2022-10-05T19:45:04.533Z,71.20
2022-10-05T19:47:41.380Z,71.40
2022-10-05T19:50:25.412Z,71.40
2022-10-05T19:53:02.477Z,71.60
2022-10-05T19:55:44.959Z,72.60
2022-10-05T19:58:27.505Z,71.50
2022-10-05T20:00:54.597Z,71.50
2022-10-05T20:03:27.643Z,71.30
2022-10-05T20:06:00.095Z,71.30
2022-10-05T20:08:36.541Z,71.20
2022-10-05T20:11:14.726Z,71.20
2022-10-05T20:13:53.591Z,71.10
2022-10-05T20:16:49.485Z,70.80
2022-10-05T20:19:47.874Z,70.80
2022-10-05T20:22:35.270Z,70.90
2022-10-05T20:25:18.597Z,71.00
2022-10-05T20:27:50.913Z,71.00
2022-10-05T20:30:27.513Z,70.90
2022-10-05T20:32:58.190Z,71.10
2022-10-05T20:35:27.869Z,71.10
2022-10-05T20:37:59.333Z,71.20
2022-10-05T20:40:28.994Z,71.20
2022-10-05T20:42:57.153Z,71.30
2022-10-05T20:45:24.101Z,71.30
2022-10-05T20:47:51.078Z,71.30
2022-10-05T20:50:18.343Z,71.40
2022-10-05T20:52:45.165Z,71.40
2022-10-05T20:55:12.618Z,71.40
2022-10-05T20:57:42.156Z,71.50
2022-10-05T21:00:11.044Z,71.40
2022-10-05T21:02:39.439Z,71.50
2022-10-05T21:05:07.649Z,71.50
2022-10-05T21:07:34.972Z,71.60
2022-10-05T21:10:03.675Z,71.70
2022-10-05T21:12:30.726Z,71.70
2022-10-05T21:14:59.443Z,71.80
2022-10-05T21:17:26.318Z,71.80
2022-10-05T21:19:53.125Z,71.70
2022-10-05T21:22:19.972Z,71.50
2022-10-05T21:24:46.818Z,71.40
2022-10-05T21:27:13.894Z,71.40
2022-10-05T21:29:44.213Z,71.30
2022-10-05T21:32:13.845Z,71.20
2022-10-05T21:34:41.477Z,71.20
2022-10-05T21:37:08.905Z,71.20
2022-10-05T21:39:36.634Z,71.00
2022-10-05T21:42:03.883Z,71.10
2022-10-05T21:44:30.677Z,71.00
2022-10-05T21:46:57.681Z,70.90
2022-10-05T21:49:25.797Z,70.90
2022-10-05T21:51:52.714Z,70.90
2022-10-05T21:54:22.066Z,70.80
2022-10-05T21:56:51.899Z,70.90
2022-10-05T21:59:22.120Z,70.70
2022-10-05T22:01:49.188Z,70.60
2022-10-05T22:04:17.103Z,70.60
2022-10-05T22:06:44.139Z,71.70
2022-10-05T22:09:12.118Z,71.60
2022-10-05T22:11:38.996Z,70.50
2022-10-05T22:14:05.924Z,70.50
2022-10-05T22:16:36.619Z,70.50
2022-10-05T22:19:05.712Z,70.50
2022-10-05T22:21:34.354Z,70.50
2022-10-05T22:24:02.739Z,70.50
2022-10-05T22:26:30.275Z,70.40
2022-10-05T22:28:57.322Z,70.50
2022-10-05T22:31:24.702Z,70.50
2022-10-05T22:33:51.755Z,70.60
2022-10-05T22:36:19.294Z,70.60
2022-10-05T22:38:47.572Z,70.70
2022-10-05T22:41:16.453Z,70.70
2022-10-05T22:43:43.336Z,70.80
2022-10-05T22:46:12.062Z,70.70
2022-10-05T22:48:39.330Z,70.80
2022-10-05T22:51:08.148Z,70.90
2022-10-05T22:53:35.419Z,70.90
2022-10-05T22:56:12.147Z,70.90
2022-10-05T22:58:40.495Z,71.00
2022-10-05T23:01:10.560Z,72.00
2022-10-05T23:03:37.570Z,71.00
2022-10-05T23:06:09.443Z,71.00
2022-10-05T23:08:37.733Z,71.10
2022-10-05T23:11:06.210Z,71.10
2022-10-05T23:13:33.706Z,71.10
2022-10-05T23:16:09.345Z,71.10
2022-10-05T23:18:36.850Z,71.10
2022-10-05T23:21:05.702Z,71.10
2022-10-05T23:23:33.033Z,71.10
2022-10-05T23:26:00.798Z,71.00
2022-10-05T23:28:28.785Z,70.90
2022-10-05T23:31:00.478Z,70.90
2022-10-05T23:33:28.093Z,70.90
2022-10-05T23:36:25.749Z,70.90
2022-10-05T23:38:52.623Z,70.80
2022-10-05T23:41:19.944Z,70.70
2022-10-05T23:43:47.260Z,70.60
2022-10-05T23:46:14.444Z,70.60
2022-10-05T23:48:41.341Z,70.60
2022-10-05T23:51:11.152Z,70.50
2022-10-05T23:53:38.267Z,70.50
2022-10-05T23:56:07.699Z,70.40
2022-10-05T23:58:34.496Z,70.40
